Time;durP1;ratioP1;P1;durP2;ratioP2;P2;SDS_P1;SDS_P2;PMS_P1;PMS_P2;Temp;Humidity;BMP_temperature;BMP_pressure;BME280_temperature;BME280_humidity;BME280_pressure;Samples;Min_cycle;Max_cycle;Signal;HPM_P1;HPM_P2
2021/04/14 00:04:28;;;;;;;0.20;0.20;;;13.00;99.90;;;;;;20656421;28;20347;-77
2021/04/14 00:14:31;;;;;;;0.20;0.17;;;13.10;99.90;;;;;;20655273;28;20287;-77
2021/04/14 00:24:36;;;;;;;0.20;0.20;;;13.00;99.90;;;;;;20654273;28;20327;-79
2021/04/14 00:34:39;;;;;;;1.13;0.63;;;13.10;99.90;;;;;;20661931;28;20190;-77
2021/04/14 00:44:43;;;;;;;0.40;0.40;;;13.10;99.90;;;;;;20662172;28;20322;-77
2021/04/14 00:54:46;;;;;;;0.40;0.30;;;13.10;99.90;;;;;;20652349;28;20661;-76
2021/04/14 01:04:49;;;;;;;1.53;0.87;;;13.10;99.90;;;;;;20651469;28;20257;-75
2021/04/14 01:14:57;;;;;;;2.97;0.63;;;13.10;99.90;;;;;;20651352;28;20203;-76
2021/04/14 01:25:07;;;;;;;0.70;0.60;;;13.10;99.90;;;;;;20651352;28;20269;-77
2021/04/14 01:35:12;;;;;;;0.67;0.63;;;13.00;99.90;;;;;;20669925;28;20208;-77
2021/04/14 01:45:18;;;;;;;0.30;0.30;;;13.10;99.90;;;;;;20575724;28;20246;-76
2021/04/14 01:55:22;;;;;;;0.73;0.73;;;13.10;99.90;;;;;;20571191;28;20270;-77
2021/04/14 02:05:28;;;;;;;1.03;1.03;;;13.10;99.90;;;;;;20585430;28;20270;-75
2021/04/14 02:15:34;;;;;;;9.77;0.63;;;13.10;99.90;;;;;;20657665;28;20281;-76
2021/04/14 02:25:38;;;;;;;0.83;0.83;;;13.30;99.90;;;;;;20664140;28;20696;-75
2021/04/14 02:35:41;;;;;;;0.20;0.20;;;13.20;99.90;;;;;;20683902;28;20257;-74
2021/04/14 02:45:44;;;;;;;0.40;0.30;;;13.10;99.90;;;;;;20664039;28;20776;-75
2021/04/14 02:55:48;;;;;;;0.63;0.63;;;13.10;99.90;;;;;;20660541;28;20207;-74
2021/04/14 03:05:51;;;;;;;6.40;1.40;;;13.00;99.90;;;;;;20643254;28;20700;-76
2021/04/14 03:15:54;;;;;;;2.97;1.70;;;13.00;99.90;;;;;;20659478;28;20200;-77
2021/04/14 03:25:58;;;;;;;0.93;0.77;;;13.10;99.90;;;;;;20659402;28;20235;-77
2021/04/14 03:36:01;;;;;;;0.80;0.40;;;13.10;99.90;;;;;;20698998;28;20595;-75
2021/04/14 03:46:07;;;;;;;5.53;0.47;;;13.00;99.90;;;;;;20657856;28;20627;-77
2021/04/14 03:56:13;;;;;;;0.80;0.30;;;12.90;99.90;;;;;;20656104;28;20203;-76
2021/04/14 04:06:21;;;;;;;0.53;0.40;;;12.90;99.90;;;;;;20662902;28;20234;-75
2021/04/14 04:16:24;;;;;;;0.27;0.23;;;12.80;99.90;;;;;;20733530;28;20253;-74
2021/04/14 04:26:28;;;;;;;0.50;0.50;;;12.80;99.90;;;;;;20735761;28;20234;-75
2021/04/14 04:36:31;;;;;;;0.20;0.10;;;12.80;99.90;;;;;;20728729;28;20277;-77
2021/04/14 04:46:34;;;;;;;0.43;0.33;;;12.70;99.90;;;;;;20652889;28;20663;-75
2021/04/14 04:56:37;;;;;;;0.40;0.37;;;12.60;99.90;;;;;;20652218;28;20218;-75
2021/04/14 05:06:42;;;;;;;0.43;0.43;;;12.50;99.90;;;;;;20651303;28;20231;-75
2021/04/14 05:16:46;;;;;;;0.20;0.10;;;12.60;99.90;;;;;;20652037;28;20199;-76
2021/04/14 05:26:50;;;;;;;0.50;0.43;;;12.60;99.90;;;;;;20649353;28;20726;-75
2021/04/14 05:36:53;;;;;;;0.20;0.10;;;12.70;99.90;;;;;;20646503;28;20219;-75
2021/04/14 05:46:56;;;;;;;0.30;0.30;;;12.70;99.90;;;;;;20665521;28;20231;-75
2021/04/14 05:56:59;;;;;;;0.20;0.10;;;12.70;99.90;;;;;;20660885;28;20274;-77
2021/04/14 06:07:03;;;;;;;0.43;0.23;;;12.90;99.90;;;;;;20659731;28;20330;-76
2021/04/14 06:17:08;;;;;;;0.20;0.10;;;13.00;99.90;;;;;;20660284;28;20199;-77
2021/04/14 06:27:25;;;;;;;0.57;0.57;;;12.90;99.90;;;;;;20663171;28;20231;-76
2021/04/14 06:37:28;;;;;;;0.20;0.10;;;13.10;99.90;;;;;;20661044;28;20305;-71
2021/04/14 06:47:49;;;;;;;0.20;0.20;;;13.30;99.90;;;;;;20660454;28;20724;-79
2021/04/14 06:58:05;;;;;;;0.40;0.40;;;13.20;99.90;;;;;;20660238;28;20554;-72
2021/04/14 07:08:17;;;;;;;0.20;0.20;;;13.70;99.90;;;;;;20664040;28;20313;-72
2021/04/14 07:18:29;;;;;;;0.30;0.30;;;13.60;99.90;;;;;;20658939;28;20540;-77
2021/04/14 07:28:56;;;;;;;0.20;0.20;;;14.00;99.90;;;;;;20657452;28;20580;-77
2021/04/14 07:39:11;;;;;;;0.33;0.33;;;14.30;99.90;;;;;;20659405;28;20215;-80
2021/04/14 07:49:17;;;;;;;0.30;0.30;;;14.30;99.90;;;;;;20628458;28;20257;-79
2021/04/14 07:59:27;;;;;;;0.60;0.43;;;14.50;99.90;;;;;;20614842;28;20223;-77
2021/04/14 08:09:31;;;;;;;0.20;0.10;;;14.20;99.90;;;;;;20583551;28;20266;-83
2021/04/14 08:19:37;;;;;;;0.43;0.40;;;14.80;99.90;;;;;;20615479;28;20224;-84
2021/04/14 08:30:01;;;;;;;0.20;0.10;;;14.90;99.90;;;;;;20638459;28;20226;-84
2021/04/14 08:40:16;;;;;;;1.40;0.30;;;14.90;99.90;;;;;;20655356;28;20258;-82
2021/04/14 08:50:28;;;;;;;0.20;0.10;;;15.10;99.90;;;;;;20652429;28;20235;-82
2021/04/14 09:00:31;;;;;;;0.27;0.17;;;15.60;99.90;;;;;;20652329;28;20199;-83
2021/04/14 09:10:41;;;;;;;0.80;0.50;;;15.50;99.90;;;;;;20654200;28;20676;-88
2021/04/14 09:20:47;;;;;;;0.20;0.10;;;15.60;99.90;;;;;;20654653;28;20217;-85
2021/04/14 09:30:54;;;;;;;0.67;0.33;;;16.10;99.90;;;;;;20658085;28;20202;-87
2021/04/14 09:41:11;;;;;;;2.07;0.67;;;16.10;99.90;;;;;;20692072;28;20227;-86
2021/04/14 09:51:35;;;;;;;0.20;0.20;;;16.50;99.90;;;;;;20734739;28;20235;-86
2021/04/14 10:01:44;;;;;;;1.63;0.83;;;16.50;99.90;;;;;;20734462;28;20218;-84
2021/04/14 10:11:49;;;;;;;0.83;0.83;;;16.80;99.90;;;;;;20593302;28;20204;-84
2021/04/14 10:21:52;;;;;;;0.30;0.20;;;16.80;99.90;;;;;;20631407;28;20321;-74
2021/04/14 10:32:02;;;;;;;0.20;0.10;;;17.10;99.90;;;;;;20666284;28;20591;-85
2021/04/14 10:42:14;;;;;;;0.30;0.20;;;17.10;99.90;;;;;;20679297;28;20242;-83
2021/04/14 10:52:23;;;;;;;0.30;0.30;;;17.30;99.90;;;;;;20671872;28;20209;-78
2021/04/14 11:02:29;;;;;;;3.60;1.00;;;17.50;99.90;;;;;;20664816;28;20223;-82
2021/04/14 11:12:35;;;;;;;1.10;0.70;;;18.20;99.90;;;;;;20671400;28;20425;-82
2021/04/14 11:22:43;;;;;;;1.90;1.03;;;18.50;99.90;;;;;;20664031;28;20503;-78
2021/04/14 11:32:54;;;;;;;0.20;0.20;;;19.50;99.90;;;;;;20692226;28;20210;-78
2021/04/14 11:42:59;;;;;;;0.23;0.20;;;20.00;99.90;;;;;;20700059;28;20258;-83
2021/04/14 11:53:21;;;;;;;0.30;0.30;;;19.70;99.90;;;;;;20646734;28;20583;-85
2021/04/14 12:03:29;;;;;;;1.97;0.33;;;20.40;99.90;;;;;;20660884;28;20259;-80
2021/04/14 12:13:33;;;;;;;0.20;0.10;;;21.20;99.90;;;;;;20627303;28;20650;-84
2021/04/14 12:23:46;;;;;;;0.20;0.10;;;21.00;99.90;;;;;;20631527;28;20228;-81
2021/04/14 12:33:59;;;;;;;0.57;0.57;;;20.90;99.90;;;;;;20625450;28;20555;-78
2021/04/14 12:44:04;;;;;;;0.20;0.20;;;20.80;99.90;;;;;;20596117;28;20254;-89
2021/04/14 12:54:24;;;;;;;0.30;0.20;;;20.90;99.90;;;;;;20542043;28;20259;-85
2021/04/14 13:04:47;;;;;;;0.30;0.20;;;21.50;99.90;;;;;;20578353;28;20303;-84
2021/04/14 13:14:55;;;;;;;0.73;0.30;;;22.10;99.90;;;;;;20650256;28;20234;-80
2021/04/14 13:25:20;;;;;;;0.70;0.60;;;22.20;99.90;;;;;;20636365;28;20522;-86
2021/04/14 13:35:29;;;;;;;1.00;0.80;;;21.00;99.90;;;;;;20653849;28;20196;-86
2021/04/14 13:45:58;;;;;;;1.13;0.73;;;22.00;99.90;;;;;;20730153;28;20276;-78
2021/04/14 13:56:07;;;;;;;0.30;0.20;;;22.60;99.90;;;;;;20727034;28;20203;-76
2021/04/14 14:06:29;;;;;;;2.73;0.80;;;22.80;99.90;;;;;;20681065;28;20227;-84
2021/04/14 14:16:39;;;;;;;0.57;0.23;;;23.30;99.90;;;;;;20671475;28;20563;-84
2021/04/14 14:26:47;;;;;;;1.70;1.53;;;23.00;99.90;;;;;;20661976;28;20227;-81
2021/04/14 14:37:19;;;;;;;0.40;0.27;;;22.50;99.90;;;;;;20670580;28;20300;-84
2021/04/14 14:47:24;;;;;;;0.87;0.50;;;23.80;99.90;;;;;;20743240;28;20227;-77
2021/04/14 14:57:31;;;;;;;1.30;0.33;;;22.90;99.90;;;;;;20746293;28;20250;-81
2021/04/14 15:07:37;;;;;;;0.33;0.20;;;19.40;99.90;;;;;;20704877;28;20595;-80
2021/04/14 15:17:47;;;;;;;0.30;0.30;;;18.60;99.90;;;;;;20659689;28;20679;-82
2021/04/14 15:27:57;;;;;;;0.20;0.20;;;18.50;99.90;;;;;;20656204;28;20724;-83
2021/04/14 15:38:26;;;;;;;13.73;0.70;;;20.40;99.90;;;;;;20647603;28;20706;-77
2021/04/14 15:48:31;;;;;;;0.20;0.20;;;21.80;99.90;;;;;;20729689;28;20257;-85
2021/04/14 15:58:35;;;;;;;0.20;0.20;;;20.50;99.90;;;;;;20712559;28;20290;-79
2021/04/14 16:08:48;;;;;;;0.57;0.57;;;18.90;99.90;;;;;;20656864;28;20243;-83
2021/04/14 16:18:56;;;;;;;0.40;0.33;;;18.40;99.90;;;;;;20621951;28;20548;-80
2021/04/14 16:39:18;;;;;;;0.77;0.33;;;17.90;99.90;;;;;;20637468;28;20253;-80
2021/04/14 16:49:24;;;;;;;2.53;0.63;;;17.90;99.90;;;;;;20654215;28;20346;-81
2021/04/14 16:59:28;;;;;;;0.30;0.30;;;17.60;99.90;;;;;;20631359;28;20243;-79
2021/04/14 17:09:31;;;;;;;0.20;0.20;;;17.70;99.90;;;;;;20649616;28;20219;-76
2021/04/14 17:20:01;;;;;;;0.53;0.30;;;17.30;99.90;;;;;;20567317;28;20595;-79
2021/04/14 17:42:29;;;;;;;0.50;0.40;;;17.60;99.90;;;;;;20885448;23;20243;-77
2021/04/14 17:52:39;;;;;;;2.37;0.30;;;17.10;99.90;;;;;;20728032;28;20294;-77
2021/04/14 18:02:46;;;;;;;3.80;1.07;;;15.60;99.90;;;;;;20726416;28;20262;-76
2021/04/14 18:12:49;;;;;;;0.23;0.17;;;15.10;99.90;;;;;;20729869;28;20209;-77
2021/04/14 18:22:54;;;;;;;0.30;0.20;;;14.90;99.90;;;;;;20735380;23;20226;-80
2021/04/14 18:32:57;;;;;;;0.23;0.23;;;14.80;99.90;;;;;;20729618;23;20250;-78
2021/04/14 18:43:01;;;;;;;0.20;0.10;;;14.40;99.90;;;;;;20734637;28;20252;-73
2021/04/14 18:53:05;;;;;;;7.60;3.30;;;14.50;99.90;;;;;;20722959;28;20541;-80
2021/04/14 19:03:08;;;;;;;2.03;0.33;;;14.30;99.90;;;;;;20723012;28;20227;-80
2021/04/14 19:13:11;;;;;;;2.23;0.77;;;13.90;99.90;;;;;;20740236;28;20214;-78
2021/04/14 19:23:44;;;;;;;1.47;1.37;;;14.00;99.90;;;;;;20739035;28;20227;-79
2021/04/14 19:33:47;;;;;;;0.20;0.10;;;13.60;99.90;;;;;;20550431;28;20335;-78
2021/04/14 19:43:54;;;;;;;2.37;0.50;;;12.90;99.90;;;;;;20628685;28;20497;-77
2021/04/14 19:53:58;;;;;;;0.20;0.13;;;12.80;99.90;;;;;;20630452;28;20302;-81
2021/04/14 20:04:09;;;;;;;8.47;0.93;;;12.50;99.90;;;;;;20706628;28;20269;-80
2021/04/14 20:14:12;;;;;;;0.77;0.40;;;12.20;99.90;;;;;;20816205;28;20210;-79
2021/04/14 20:24:17;;;;;;;0.30;0.30;;;11.90;99.90;;;;;;20796525;28;20238;-76
2021/04/14 20:34:19;;;;;;;0.20;0.20;;;11.70;99.90;;;;;;20784145;28;20230;-75
2021/04/14 20:44:23;;;;;;;3.50;0.53;;;11.60;99.90;;;;;;20803240;28;20238;-75
2021/04/14 20:54:26;;;;;;;0.40;0.40;;;11.50;99.90;;;;;;20798525;28;20206;-73
2021/04/14 21:04:30;;;;;;;0.30;0.30;;;11.40;99.90;;;;;;20735254;28;20231;-75
2021/04/14 21:14:33;;;;;;;0.57;0.57;;;11.40;99.90;;;;;;20733040;28;20231;-75
2021/04/14 21:24:36;;;;;;;1.30;0.57;;;11.40;99.90;;;;;;20732377;28;20231;-75
2021/04/14 21:34:39;;;;;;;0.90;0.90;;;11.40;99.90;;;;;;20716054;28;20226;-73
2021/04/14 21:44:44;;;;;;;0.40;0.23;;;11.50;99.90;;;;;;20771845;28;20317;-74
2021/04/14 21:54:48;;;;;;;0.30;0.30;;;11.60;99.90;;;;;;20773324;28;20210;-79
2021/04/14 22:04:52;;;;;;;0.37;0.30;;;11.80;99.90;;;;;;20731588;28;20245;-78
2021/04/14 22:14:57;;;;;;;0.77;0.77;;;11.80;99.90;;;;;;20718735;28;20592;-76
2021/04/14 22:25:01;;;;;;;0.23;0.23;;;11.90;99.90;;;;;;20712100;28;20285;-76
2021/04/14 22:35:06;;;;;;;0.57;0.57;;;12.10;99.90;;;;;;20744809;28;20707;-76
2021/04/14 22:45:11;;;;;;;0.70;0.70;;;12.50;99.90;;;;;;20802146;28;20226;-76
2021/04/14 22:55:16;;;;;;;0.40;0.40;;;12.60;99.90;;;;;;20825362;28;20652;-76
2021/04/14 23:05:20;;;;;;;1.50;0.50;;;12.70;99.90;;;;;;20823272;28;20234;-77
2021/04/14 23:15:24;;;;;;;0.30;0.30;;;12.70;99.90;;;;;;20824589;28;20605;-77
2021/04/14 23:25:29;;;;;;;1.80;1.27;;;12.70;99.90;;;;;;20753301;28;20219;-76
2021/04/14 23:35:31;;;;;;;0.20;0.20;;;12.70;99.90;;;;;;20737165;28;20219;-74
2021/04/14 23:45:35;;;;;;;1.40;0.30;;;12.60;99.90;;;;;;20739079;28;20226;-76
2021/04/14 23:55:39;;;;;;;0.50;0.50;;;12.50;99.90;;;;;;20737815;28;20885;-75
